x

East Scotia Slope (44137) Wave Buoy

2:00am - Sat 2nd Aug 2014 All times are EDT. -4 hours from GMT.

  • Sig Wave height 2.6ft
  • Peak Period 7s
  • Wind
    9mph
  • Sea Temp 75°f
  • Air Temp 70°f
  • Sea Pressure 1024.7mb
  • East Scotia Slope
  • East Scotia Slope

More Historic Weather Station data

Upgrade to MSW Pro to gain access to the past 30 days of data for over 8000 Wavebouys and Weather Stations around the globe.

Join Pro

Comparision Forecast

View Surf forecast
   
Sat 08/02 2:00am 2.5ft 7s 9
mph
1024.7mb 75f 70f
1:00am 3ft 8s 7 9 mph 1024.7mb 75f 71f
12:00am 3ft 7s 4 7 mph 1024.9mb 76f 72f
Fri 08/01 11:00pm 3.5ft 8s 9 11 mph 1024.9mb 76f 73f
10:00pm 3ft 8s 9 11 mph 1025mb 76f 74f
9:00pm 3ft 8s 9 11 mph 1025.1mb 76f 74f
8:00pm 3.5ft 7s 9
mph
1024.8mb 75f 74f
7:00pm 3.5ft 7s 9 11 mph 1024.6mb 75f 74f
6:00pm 3.5ft 7s 7 9 mph 1024.5mb 76f 74f
5:00pm 3.5ft 7s 4 7 mph 1024.6mb 75f 73f
4:00pm 3.5ft 8s 9 11 mph 1024.6mb 75f 75f
3:00pm 3.5ft 8s 9
mph
1024.7mb 75f 75f
2:00pm 4ft 8s 9 11 mph 1024.9mb 74f 75f
1:00pm 4ft 8s 9 11 mph 1024.9mb 74f 75f
12:00pm 4.5ft 7s 11 13 mph 1024.8mb 75f 74f
11:00am 4.5ft 8s 9 13 mph 1024.6mb 74f 74f
10:00am 4.5ft 8s 9 11 mph 1024.8mb 74f 74f
9:00am 4.5ft 8s 7 9 mph 1024.7mb 74f 74f
8:00am 3.5ft 7s 9 11 mph 1024.9mb 74f 74f
7:00am 4ft 9s 13 18 mph 1024.4mb 74f 74f
6:00am 4ft 8s 13 16 mph 1024.1mb 75f 74f
5:00am 4.5ft 8s 18 20 mph 1023.8mb 75f 75f
4:00am 4.5ft 9s 18 22 mph 1023.6mb 75f 75f
3:00am 4.5ft 8s 20 25 mph 1023.6mb 76f 76f
2:00am 5ft 8s 18 20 mph 1023.9mb 76f 76f
1:00am 5.5ft 8s 16 20 mph 1024.3mb 76f 76f
12:00am 5ft 8s 18 20 mph 1024mb 76f 76f
Thu 07/31 11:00pm 6ft 8s 13 18 mph 1024.6mb 76f 76f
10:00pm 5.5ft 9s 16 18 mph 1024.6mb 76f 76f
9:00pm 6ft 9s 16 20 mph 1024.5mb 76f 76f
8:00pm 6ft 9s 13 18 mph 1024.3mb 76f 76f
6:00pm 6ft 8s 11 13 mph 1024.5mb 75f 76f
5:00pm 6ft 9s 11 13 mph 1024.4mb 75f 75f
4:00pm 6ft 10s 11 13 mph 1024.4mb 75f 75f
3:00pm 6ft 10s 16 18 mph 1024.1mb 75f 76f
2:00pm 6ft 9s 16 18 mph 1024.1mb 75f 75f
1:00pm 6ft 9s 16 20 mph 1024.2mb 75f 75f
12:00pm 6ft 9s 18 20 mph 1024.3mb 75f 74f
11:00am 6ft 8s 20 25 mph 1024.3mb 75f 74f
10:00am 6.5ft 8s 20 25 mph 1023.8mb 75f 76f
9:00am 6ft 8s 22 27 mph 1023.2mb 75f 76f
8:00am 6ft 8s 20 25 mph 1022.9mb 75f 76f
7:00am 6ft 8s 18 22 mph 1022.8mb 75f 76f
6:00am 6ft 8s 20 29 mph 1023.3mb 75f 72f
5:00am 6.5ft 9s 18 22 mph 1023.4mb 75f 72f
4:00am 6.5ft 8s 22 27 mph 1023mb 74f 73f
3:00am 6ft 8s 22 27 mph 1022.1mb 75f 75f
2:00am 7ft 8s 22 27 mph 1021.9mb 75f 76f
1:00am 7ft 9s 20 27 mph 1021.9mb 75f 76f
12:00am 7ft 8s 22 27 mph 1021.9mb 75f 76f
Wed 07/30 11:00pm 7ft 8s 22 25 mph 1021.9mb 74f 76f
10:00pm 7ft 9s 20 22 mph 1022mb 74f 76f
9:00pm 7ft 8s 18 22 mph 1022.2mb 74f 75f
8:00pm 7ft 9s 18 20 mph 1021.8mb 74f 75f
7:00pm 7ft 9s 20 25 mph 1021mb 74f 75f
6:00pm 7ft 9s 20 25 mph 1020.8mb 74f 75f
5:00pm 6ft 8s 20 22 mph 1020.6mb 74f 75f
4:00pm 7ft 9s 16 18 mph 1020.5mb 74f 76f
3:00pm 6.5ft 8s 11 16 mph 1020.4mb 74f 76f
2:00pm 6.5ft 10s 13 16 mph 1020.8mb 74f 76f
1:00pm 7ft 9s 9 11 mph 1021.2mb 73f 75f
12:00pm 7.5ft 9s 7 9 mph 1021.6mb 73f 74f
11:00am 8ft 10s 9 11 mph 1021.4mb 73f 74f
10:00am 8ft 10s 13 18 mph 1021.2mb 73f 74f
9:00am 8.5ft 10s 18 22 mph 1020.5mb 73f 74f
8:00am 9ft 9s 18 22 mph 1019.7mb 73f 73f
7:00am 9ft 10s 16 20 mph 1020.4mb 73f 73f
6:00am 9ft 10s 18 22 mph 1020.1mb 73f 73f
5:00am 8ft 10s 20 25 mph 1019.9mb 73f 73f
4:00am 8.5ft 10s 18 22 mph 1018.7mb 73f 72f
3:00am 8ft 10s 11 16 mph 1018.4mb 73f 72f
2:00am 9ft 10s 16 20 mph 1018.7mb 73f 71f
1:00am 9ft 10s 18 22 mph 1018.5mb 72f 71f
12:00am 9ft 10s 22 29 mph 1018.4mb 72f 71f
Tue 07/29 11:00pm 8.5ft 10s 27 34 mph 1018.2mb 72f 72f
10:00pm 10ft 10s 20 22 mph 1017.7mb 71f 73f
9:00pm 9ft 10s 18 22 mph 1017.1mb 71f 74f
8:00pm 10ft 10s 20 22 mph 1016.9mb 72f 75f
7:00pm 10ft 10s 18 22 mph 1016.9mb 72f 74f
6:00pm 10.5ft 10s 16 22 mph 1016.9mb 72f 74f
5:00pm 11ft 10s 20 25 mph 1016.9mb 73f 75f
4:00pm 11.5ft 9s 25 29 mph 1016.4mb 73f 75f
3:00pm 10ft 10s 27 34 mph 1015.7mb 73f 75f
2:00pm 10ft 10s 25 29 mph 1015.4mb 73f 75f
1:00pm 10ft 10s 22 27 mph 1015.1mb 73f 75f
12:00pm 9ft 8s 22 25 mph 1014.6mb 72f 75f
11:00am 9ft 9s 20 22 mph 1014.6mb 71f 75f
10:00am 9ft 9s 22 27 mph 1014.4mb 71f 75f
9:00am 9ft 9s 22 27 mph 1014.1mb 71f 75f